sensor_id;sensor_type;location;lat;lon;timestamp;P1;durP1;ratioP1;P2;durP2;ratioP2
2728;SDS011;1372;47.956;7.830;2023-10-31T00:01:23;0.60;;;0.40;;
2728;SDS011;1372;47.956;7.830;2023-10-31T00:03:52;0.50;;;0.50;;
2728;SDS011;1372;47.956;7.830;2023-10-31T00:06:22;0.60;;;0.53;;
2728;SDS011;1372;47.956;7.830;2023-10-31T00:08:51;0.50;;;0.50;;
2728;SDS011;1372;47.956;7.830;2023-10-31T00:11:22;0.50;;;0.50;;
2728;SDS011;1372;47.956;7.830;2023-10-31T00:13:53;0.77;;;0.53;;
2728;SDS011;1372;47.956;7.830;2023-10-31T00:16:22;0.53;;;0.53;;
2728;SDS011;1372;47.956;7.830;2023-10-31T00:18:51;1.43;;;0.50;;
2728;SDS011;1372;47.956;7.830;2023-10-31T00:21:20;2.10;;;0.67;;
2728;SDS011;1372;47.956;7.830;2023-10-31T00:23:49;1.00;;;0.50;;
2728;SDS011;1372;47.956;7.830;2023-10-31T00:26:19;2.20;;;0.33;;
2728;SDS011;1372;47.956;7.830;2023-10-31T00:28:47;2.67;;;0.53;;
2728;SDS011;1372;47.956;7.830;2023-10-31T00:31:18;0.90;;;0.57;;
2728;SDS011;1372;47.956;7.830;2023-10-31T00:33:47;0.70;;;0.43;;
2728;SDS011;1372;47.956;7.830;2023-10-31T00:36:16;0.60;;;0.40;;
2728;SDS011;1372;47.956;7.830;2023-10-31T00:38:45;0.93;;;0.40;;
2728;SDS011;1372;47.956;7.830;2023-10-31T00:41:16;0.50;;;0.43;;
2728;SDS011;1372;47.956;7.830;2023-10-31T00:43:45;1.60;;;0.70;;
2728;SDS011;1372;47.956;7.830;2023-10-31T00:46:14;0.50;;;0.50;;
2728;SDS011;1372;47.956;7.830;2023-10-31T00:48:45;0.90;;;0.60;;
2728;SDS011;1372;47.956;7.830;2023-10-31T00:51:18;0.93;;;0.60;;
2728;SDS011;1372;47.956;7.830;2023-10-31T00:53:47;3.37;;;0.90;;
2728;SDS011;1372;47.956;7.830;2023-10-31T00:56:16;1.10;;;0.40;;
2728;SDS011;1372;47.956;7.830;2023-10-31T00:58:45;2.20;;;0.50;;
2728;SDS011;1372;47.956;7.830;2023-10-31T01:01:14;0.70;;;0.60;;
2728;SDS011;1372;47.956;7.830;2023-10-31T01:03:45;0.50;;;0.40;;
2728;SDS011;1372;47.956;7.830;2023-10-31T01:06:14;1.87;;;0.50;;
2728;SDS011;1372;47.956;7.830;2023-10-31T01:08:43;1.50;;;0.50;;
2728;SDS011;1372;47.956;7.830;2023-10-31T01:11:12;1.00;;;0.60;;
2728;SDS011;1372;47.956;7.830;2023-10-31T01:13:44;1.63;;;0.50;;
2728;SDS011;1372;47.956;7.830;2023-10-31T01:16:16;0.60;;;0.60;;
2728;SDS011;1372;47.956;7.830;2023-10-31T01:18:49;0.90;;;0.60;;
2728;SDS011;1372;47.956;7.830;2023-10-31T01:21:18;2.93;;;0.60;;
2728;SDS011;1372;47.956;7.830;2023-10-31T01:23:47;1.60;;;0.60;;
2728;SDS011;1372;47.956;7.830;2023-10-31T01:26:16;0.70;;;0.50;;
2728;SDS011;1372;47.956;7.830;2023-10-31T01:28:45;0.90;;;0.53;;
2728;SDS011;1372;47.956;7.830;2023-10-31T01:31:14;3.53;;;0.87;;
2728;SDS011;1372;47.956;7.830;2023-10-31T01:33:43;1.90;;;0.80;;
2728;SDS011;1372;47.956;7.830;2023-10-31T01:36:15;2.30;;;0.50;;
2728;SDS011;1372;47.956;7.830;2023-10-31T01:38:45;0.60;;;0.60;;
2728;SDS011;1372;47.956;7.830;2023-10-31T01:41:14;0.50;;;0.50;;
2728;SDS011;1372;47.956;7.830;2023-10-31T01:43:43;2.43;;;1.07;;
2728;SDS011;1372;47.956;7.830;2023-10-31T01:46:12;0.50;;;0.50;;
2728;SDS011;1372;47.956;7.830;2023-10-31T01:48:41;0.60;;;0.60;;
2728;SDS011;1372;47.956;7.830;2023-10-31T01:51:13;3.60;;;0.80;;
2728;SDS011;1372;47.956;7.830;2023-10-31T01:53:43;2.07;;;0.80;;
2728;SDS011;1372;47.956;7.830;2023-10-31T01:56:13;2.63;;;0.60;;
2728;SDS011;1372;47.956;7.830;2023-10-31T01:58:42;2.93;;;0.50;;
2728;SDS011;1372;47.956;7.830;2023-10-31T02:01:13;0.40;;;0.40;;
2728;SDS011;1372;47.956;7.830;2023-10-31T02:03:42;1.67;;;0.77;;
2728;SDS011;1372;47.956;7.830;2023-10-31T02:06:12;0.97;;;0.80;;
2728;SDS011;1372;47.956;7.830;2023-10-31T02:08:42;1.10;;;0.57;;
2728;SDS011;1372;47.956;7.830;2023-10-31T02:11:11;0.70;;;0.60;;
2728;SDS011;1372;47.956;7.830;2023-10-31T02:13:40;0.70;;;0.53;;
2728;SDS011;1372;47.956;7.830;2023-10-31T02:16:09;1.80;;;1.37;;
2728;SDS011;1372;47.956;7.830;2023-10-31T02:18:38;0.80;;;0.60;;
2728;SDS011;1372;47.956;7.830;2023-10-31T02:21:08;1.13;;;0.63;;
2728;SDS011;1372;47.956;7.830;2023-10-31T02:23:38;0.77;;;0.60;;
2728;SDS011;1372;47.956;7.830;2023-10-31T02:26:07;0.97;;;0.70;;
2728;SDS011;1372;47.956;7.830;2023-10-31T02:28:37;0.60;;;0.60;;
2728;SDS011;1372;47.956;7.830;2023-10-31T02:31:07;0.53;;;0.53;;
2728;SDS011;1372;47.956;7.830;2023-10-31T02:33:37;1.60;;;1.00;;
2728;SDS011;1372;47.956;7.830;2023-10-31T02:36:06;2.30;;;0.70;;
2728;SDS011;1372;47.956;7.830;2023-10-31T02:38:36;2.33;;;0.90;;
2728;SDS011;1372;47.956;7.830;2023-10-31T02:41:07;0.60;;;0.57;;
2728;SDS011;1372;47.956;7.830;2023-10-31T02:43:36;1.90;;;0.80;;
2728;SDS011;1372;47.956;7.830;2023-10-31T02:46:05;0.70;;;0.70;;
2728;SDS011;1372;47.956;7.830;2023-10-31T02:48:35;0.73;;;0.50;;
2728;SDS011;1372;47.956;7.830;2023-10-31T02:51:07;0.90;;;0.80;;
2728;SDS011;1372;47.956;7.830;2023-10-31T02:53:36;1.67;;;0.90;;
2728;SDS011;1372;47.956;7.830;2023-10-31T02:56:07;1.47;;;0.70;;
2728;SDS011;1372;47.956;7.830;2023-10-31T02:58:36;2.93;;;0.90;;
2728;SDS011;1372;47.956;7.830;2023-10-31T03:01:05;1.83;;;0.90;;
2728;SDS011;1372;47.956;7.830;2023-10-31T03:03:34;0.70;;;0.70;;
2728;SDS011;1372;47.956;7.830;2023-10-31T03:06:04;3.40;;;0.90;;
2728;SDS011;1372;47.956;7.830;2023-10-31T03:08:33;0.83;;;0.73;;
2728;SDS011;1372;47.956;7.830;2023-10-31T03:11:06;1.27;;;0.70;;
2728;SDS011;1372;47.956;7.830;2023-10-31T03:13:35;4.63;;;1.30;;
2728;SDS011;1372;47.956;7.830;2023-10-31T03:16:04;3.10;;;1.07;;
2728;SDS011;1372;47.956;7.830;2023-10-31T03:18:34;0.90;;;0.80;;
2728;SDS011;1372;47.956;7.830;2023-10-31T03:21:03;2.23;;;0.73;;
2728;SDS011;1372;47.956;7.830;2023-10-31T03:23:32;1.00;;;0.90;;
2728;SDS011;1372;47.956;7.830;2023-10-31T03:26:02;2.30;;;1.00;;
2728;SDS011;1372;47.956;7.830;2023-10-31T03:28:33;0.70;;;0.70;;
2728;SDS011;1372;47.956;7.830;2023-10-31T03:31:04;1.63;;;1.20;;
2728;SDS011;1372;47.956;7.830;2023-10-31T03:33:33;1.33;;;0.83;;
2728;SDS011;1372;47.956;7.830;2023-10-31T03:36:04;1.23;;;0.70;;
2728;SDS011;1372;47.956;7.830;2023-10-31T03:38:34;0.60;;;0.60;;
2728;SDS011;1372;47.956;7.830;2023-10-31T03:41:03;3.50;;;0.90;;
2728;SDS011;1372;47.956;7.830;2023-10-31T03:43:33;3.73;;;1.00;;
2728;SDS011;1372;47.956;7.830;2023-10-31T03:46:03;4.73;;;0.67;;
2728;SDS011;1372;47.956;7.830;2023-10-31T03:48:33;1.20;;;0.60;;
2728;SDS011;1372;47.956;7.830;2023-10-31T03:51:02;0.97;;;0.60;;
2728;SDS011;1372;47.956;7.830;2023-10-31T03:53:33;4.00;;;1.00;;
2728;SDS011;1372;47.956;7.830;2023-10-31T03:56:03;1.17;;;0.60;;
2728;SDS011;1372;47.956;7.830;2023-10-31T03:58:35;1.57;;;0.80;;
2728;SDS011;1372;47.956;7.830;2023-10-31T04:01:04;1.53;;;0.63;;
2728;SDS011;1372;47.956;7.830;2023-10-31T04:03:33;1.40;;;0.83;;
2728;SDS011;1372;47.956;7.830;2023-10-31T04:06:02;2.03;;;0.80;;
2728;SDS011;1372;47.956;7.830;2023-10-31T04:08:32;3.37;;;1.37;;
2728;SDS011;1372;47.956;7.830;2023-10-31T04:11:01;4.07;;;1.00;;
2728;SDS011;1372;47.956;7.830;2023-10-31T04:13:30;2.60;;;1.17;;
2728;SDS011;1372;47.956;7.830;2023-10-31T04:16:03;4.43;;;1.30;;
2728;SDS011;1372;47.956;7.830;2023-10-31T04:18:35;2.33;;;1.27;;
2728;SDS011;1372;47.956;7.830;2023-10-31T04:21:07;2.33;;;1.17;;
2728;SDS011;1372;47.956;7.830;2023-10-31T04:23:36;3.60;;;1.30;;
2728;SDS011;1372;47.956;7.830;2023-10-31T04:26:06;2.20;;;1.03;;
2728;SDS011;1372;47.956;7.830;2023-10-31T04:28:37;3.77;;;1.83;;
2728;SDS011;1372;47.956;7.830;2023-10-31T04:31:08;1.30;;;1.20;;
2728;SDS011;1372;47.956;7.830;2023-10-31T04:33:37;1.90;;;0.90;;
2728;SDS011;1372;47.956;7.830;2023-10-31T04:36:06;3.20;;;1.20;;
2728;SDS011;1372;47.956;7.830;2023-10-31T04:38:37;2.37;;;2.17;;
2728;SDS011;1372;47.956;7.830;2023-10-31T04:41:07;1.70;;;0.77;;
2728;SDS011;1372;47.956;7.830;2023-10-31T04:43:37;2.70;;;1.10;;
2728;SDS011;1372;47.956;7.830;2023-10-31T04:46:09;3.30;;;0.90;;
2728;SDS011;1372;47.956;7.830;2023-10-31T04:48:38;2.70;;;1.43;;
2728;SDS011;1372;47.956;7.830;2023-10-31T04:51:07;1.93;;;0.77;;
2728;SDS011;1372;47.956;7.830;2023-10-31T04:53:36;1.90;;;1.57;;
2728;SDS011;1372;47.956;7.830;2023-10-31T04:56:11;1.37;;;1.00;;
2728;SDS011;1372;47.956;7.830;2023-10-31T04:58:41;0.70;;;0.70;;
2728;SDS011;1372;47.956;7.830;2023-10-31T05:01:12;1.30;;;1.20;;
2728;SDS011;1372;47.956;7.830;2023-10-31T05:03:43;2.17;;;1.30;;
2728;SDS011;1372;47.956;7.830;2023-10-31T05:06:18;2.30;;;1.70;;
2728;SDS011;1372;47.956;7.830;2023-10-31T05:08:48;4.93;;;1.17;;
2728;SDS011;1372;47.956;7.830;2023-10-31T05:11:17;4.10;;;1.47;;
2728;SDS011;1372;47.956;7.830;2023-10-31T05:13:47;1.70;;;0.90;;
2728;SDS011;1372;47.956;7.830;2023-10-31T05:16:19;2.73;;;1.27;;
2728;SDS011;1372;47.956;7.830;2023-10-31T05:18:48;4.23;;;1.00;;
2728;SDS011;1372;47.956;7.830;2023-10-31T05:21:18;3.67;;;1.17;;
2728;SDS011;1372;47.956;7.830;2023-10-31T05:23:48;2.53;;;1.03;;
2728;SDS011;1372;47.956;7.830;2023-10-31T05:26:17;4.33;;;1.17;;
2728;SDS011;1372;47.956;7.830;2023-10-31T05:28:46;7.00;;;1.30;;
2728;SDS011;1372;47.956;7.830;2023-10-31T05:31:15;2.53;;;1.10;;
2728;SDS011;1372;47.956;7.830;2023-10-31T05:33:47;3.93;;;1.30;;
2728;SDS011;1372;47.956;7.830;2023-10-31T05:36:19;3.37;;;1.60;;
2728;SDS011;1372;47.956;7.830;2023-10-31T05:38:48;4.73;;;1.90;;
2728;SDS011;1372;47.956;7.830;2023-10-31T05:41:17;2.50;;;1.63;;
2728;SDS011;1372;47.956;7.830;2023-10-31T05:43:46;4.33;;;1.73;;
2728;SDS011;1372;47.956;7.830;2023-10-31T05:46:15;9.13;;;1.50;;
2728;SDS011;1372;47.956;7.830;2023-10-31T05:48:45;2.50;;;1.10;;
2728;SDS011;1372;47.956;7.830;2023-10-31T05:51:18;4.00;;;1.50;;
2728;SDS011;1372;47.956;7.830;2023-10-31T05:53:48;1.47;;;1.37;;
2728;SDS011;1372;47.956;7.830;2023-10-31T05:56:17;4.50;;;1.73;;
2728;SDS011;1372;47.956;7.830;2023-10-31T05:58:48;4.50;;;1.47;;
2728;SDS011;1372;47.956;7.830;2023-10-31T06:01:18;3.23;;;1.67;;
2728;SDS011;1372;47.956;7.830;2023-10-31T06:03:48;5.17;;;3.00;;
2728;SDS011;1372;47.956;7.830;2023-10-31T06:06:18;11.47;;;7.63;;
2728;SDS011;1372;47.956;7.830;2023-10-31T06:08:49;8.07;;;3.80;;
2728;SDS011;1372;47.956;7.830;2023-10-31T06:11:18;10.13;;;5.60;;
2728;SDS011;1372;47.956;7.830;2023-10-31T06:13:47;11.70;;;5.37;;
2728;SDS011;1372;47.956;7.830;2023-10-31T06:16:16;2.77;;;2.30;;
2728;SDS011;1372;47.956;7.830;2023-10-31T06:18:49;5.00;;;2.93;;
2728;SDS011;1372;47.956;7.830;2023-10-31T06:21:18;2.70;;;1.80;;
2728;SDS011;1372;47.956;7.830;2023-10-31T06:23:47;2.90;;;1.17;;
2728;SDS011;1372;47.956;7.830;2023-10-31T06:26:16;4.70;;;3.03;;
2728;SDS011;1372;47.956;7.830;2023-10-31T06:28:44;3.60;;;2.57;;
2728;SDS011;1372;47.956;7.830;2023-10-31T06:31:18;2.33;;;1.40;;
2728;SDS011;1372;47.956;7.830;2023-10-31T06:33:47;3.43;;;2.37;;
2728;SDS011;1372;47.956;7.830;2023-10-31T06:36:17;6.50;;;2.93;;
2728;SDS011;1372;47.956;7.830;2023-10-31T06:38:46;3.17;;;1.10;;
2728;SDS011;1372;47.956;7.830;2023-10-31T06:41:16;4.47;;;1.40;;
2728;SDS011;1372;47.956;7.830;2023-10-31T06:43:47;4.33;;;1.93;;
2728;SDS011;1372;47.956;7.830;2023-10-31T06:46:18;2.77;;;0.90;;
2728;SDS011;1372;47.956;7.830;2023-10-31T06:48:50;4.43;;;1.03;;
2728;SDS011;1372;47.956;7.830;2023-10-31T06:51:20;2.13;;;1.07;;
2728;SDS011;1372;47.956;7.830;2023-10-31T06:53:49;6.00;;;1.17;;
2728;SDS011;1372;47.956;7.830;2023-10-31T06:56:18;1.73;;;1.47;;
2728;SDS011;1372;47.956;7.830;2023-10-31T06:58:47;2.13;;;1.03;;
2728;SDS011;1372;47.956;7.830;2023-10-31T07:01:15;2.80;;;1.50;;
2728;SDS011;1372;47.956;7.830;2023-10-31T07:03:47;2.90;;;0.90;;
2728;SDS011;1372;47.956;7.830;2023-10-31T07:06:17;1.90;;;1.10;;
2728;SDS011;1372;47.956;7.830;2023-10-31T07:08:48;6.97;;;1.30;;
2728;SDS011;1372;47.956;7.830;2023-10-31T07:11:17;5.00;;;1.33;;
2728;SDS011;1372;47.956;7.830;2023-10-31T07:13:45;2.10;;;1.10;;
2728;SDS011;1372;47.956;7.830;2023-10-31T07:16:17;2.50;;;0.70;;
2728;SDS011;1372;47.956;7.830;2023-10-31T07:18:46;2.20;;;1.23;;
2728;SDS011;1372;47.956;7.830;2023-10-31T07:21:15;2.27;;;1.60;;
2728;SDS011;1372;47.956;7.830;2023-10-31T07:23:45;3.20;;;1.80;;
2728;SDS011;1372;47.956;7.830;2023-10-31T07:26:14;2.33;;;1.40;;
2728;SDS011;1372;47.956;7.830;2023-10-31T07:28:44;1.90;;;0.90;;
2728;SDS011;1372;47.956;7.830;2023-10-31T07:31:16;3.43;;;2.00;;
2728;SDS011;1372;47.956;7.830;2023-10-31T07:33:45;2.17;;;1.40;;
2728;SDS011;1372;47.956;7.830;2023-10-31T07:36:14;2.53;;;1.20;;
2728;SDS011;1372;47.956;7.830;2023-10-31T07:38:47;0.93;;;0.80;;
2728;SDS011;1372;47.956;7.830;2023-10-31T07:41:16;3.40;;;1.10;;
2728;SDS011;1372;47.956;7.830;2023-10-31T07:43:45;1.43;;;0.70;;
2728;SDS011;1372;47.956;7.830;2023-10-31T07:46:14;2.27;;;1.30;;
2728;SDS011;1372;47.956;7.830;2023-10-31T07:48:43;1.80;;;0.87;;
2728;SDS011;1372;47.956;7.830;2023-10-31T07:51:11;2.27;;;1.47;;
2728;SDS011;1372;47.956;7.830;2023-10-31T07:53:41;3.00;;;1.50;;
2728;SDS011;1372;47.956;7.830;2023-10-31T07:56:15;1.93;;;1.60;;
2728;SDS011;1372;47.956;7.830;2023-10-31T07:58:52;1.53;;;1.03;;
2728;SDS011;1372;47.956;7.830;2023-10-31T08:01:21;1.47;;;0.80;;
2728;SDS011;1372;47.956;7.830;2023-10-31T08:03:51;1.57;;;0.63;;
2728;SDS011;1372;47.956;7.830;2023-10-31T08:06:19;0.80;;;0.80;;
2728;SDS011;1372;47.956;7.830;2023-10-31T08:08:48;1.80;;;0.93;;
2728;SDS011;1372;47.956;7.830;2023-10-31T08:11:19;0.70;;;0.60;;
2728;SDS011;1372;47.956;7.830;2023-10-31T08:13:48;1.00;;;0.70;;
2728;SDS011;1372;47.956;7.830;2023-10-31T08:16:17;2.50;;;0.90;;
2728;SDS011;1372;47.956;7.830;2023-10-31T08:18:49;0.60;;;0.60;;
2728;SDS011;1372;47.956;7.830;2023-10-31T08:21:18;1.07;;;0.70;;
2728;SDS011;1372;47.956;7.830;2023-10-31T08:23:47;2.30;;;0.60;;
2728;SDS011;1372;47.956;7.830;2023-10-31T08:26:16;0.70;;;0.60;;
2728;SDS011;1372;47.956;7.830;2023-10-31T08:28:48;1.13;;;0.90;;
2728;SDS011;1372;47.956;7.830;2023-10-31T08:31:18;2.33;;;0.80;;
2728;SDS011;1372;47.956;7.830;2023-10-31T08:33:47;1.20;;;0.80;;
2728;SDS011;1372;47.956;7.830;2023-10-31T08:36:17;0.70;;;0.57;;
2728;SDS011;1372;47.956;7.830;2023-10-31T08:38:45;0.80;;;0.57;;
2728;SDS011;1372;47.956;7.830;2023-10-31T08:41:15;1.23;;;0.60;;
2728;SDS011;1372;47.956;7.830;2023-10-31T08:43:47;1.43;;;0.90;;
2728;SDS011;1372;47.956;7.830;2023-10-31T08:46:24;1.70;;;0.90;;
2728;SDS011;1372;47.956;7.830;2023-10-31T08:48:53;0.73;;;0.73;;
2728;SDS011;1372;47.956;7.830;2023-10-31T08:51:24;1.50;;;0.70;;
2728;SDS011;1372;47.956;7.830;2023-10-31T08:53:53;1.70;;;0.60;;
2728;SDS011;1372;47.956;7.830;2023-10-31T08:56:22;1.23;;;0.80;;
2728;SDS011;1372;47.956;7.830;2023-10-31T08:58:54;1.20;;;0.90;;
2728;SDS011;1372;47.956;7.830;2023-10-31T09:01:23;2.43;;;0.70;;
2728;SDS011;1372;47.956;7.830;2023-10-31T09:03:55;0.93;;;0.77;;
2728;SDS011;1372;47.956;7.830;2023-10-31T09:06:25;1.60;;;0.70;;
2728;SDS011;1372;47.956;7.830;2023-10-31T09:08:54;2.13;;;0.60;;
2728;SDS011;1372;47.956;7.830;2023-10-31T09:11:23;0.70;;;0.70;;
2728;SDS011;1372;47.956;7.830;2023-10-31T09:13:56;1.30;;;0.70;;
2728;SDS011;1372;47.956;7.830;2023-10-31T09:16:25;3.70;;;0.60;;
2728;SDS011;1372;47.956;7.830;2023-10-31T09:18:54;0.90;;;0.60;;
2728;SDS011;1372;47.956;7.830;2023-10-31T09:21:23;1.70;;;0.70;;
2728;SDS011;1372;47.956;7.830;2023-10-31T09:23:52;0.73;;;0.70;;
2728;SDS011;1372;47.956;7.830;2023-10-31T09:26:21;1.17;;;0.80;;
2728;SDS011;1372;47.956;7.830;2023-10-31T09:28:50;1.57;;;0.70;;
2728;SDS011;1372;47.956;7.830;2023-10-31T09:31:20;1.37;;;0.70;;
2728;SDS011;1372;47.956;7.830;2023-10-31T09:33:53;2.40;;;0.90;;
2728;SDS011;1372;47.956;7.830;2023-10-31T09:36:22;2.37;;;0.90;;
2728;SDS011;1372;47.956;7.830;2023-10-31T09:38:51;0.80;;;0.80;;
2728;SDS011;1372;47.956;7.830;2023-10-31T09:41:20;1.40;;;1.00;;
2728;SDS011;1372;47.956;7.830;2023-10-31T09:43:49;2.03;;;1.30;;
2728;SDS011;1372;47.956;7.830;2023-10-31T09:46:17;2.53;;;0.90;;
2728;SDS011;1372;47.956;7.830;2023-10-31T09:48:48;1.20;;;1.10;;
2728;SDS011;1372;47.956;7.830;2023-10-31T09:51:18;2.07;;;0.80;;
2728;SDS011;1372;47.956;7.830;2023-10-31T09:53:46;1.53;;;0.90;;
2728;SDS011;1372;47.956;7.830;2023-10-31T09:56:16;2.30;;;0.60;;
2728;SDS011;1372;47.956;7.830;2023-10-31T09:58:46;1.27;;;1.00;;
2728;SDS011;1372;47.956;7.830;2023-10-31T10:01:15;2.10;;;0.90;;
2728;SDS011;1372;47.956;7.830;2023-10-31T10:03:44;0.70;;;0.70;;
2728;SDS011;1372;47.956;7.830;2023-10-31T10:06:15;2.60;;;0.83;;
2728;SDS011;1372;47.956;7.830;2023-10-31T10:08:47;0.80;;;0.80;;
2728;SDS011;1372;47.956;7.830;2023-10-31T10:11:19;1.60;;;0.67;;
2728;SDS011;1372;47.956;7.830;2023-10-31T10:13:51;2.00;;;0.77;;
2728;SDS011;1372;47.956;7.830;2023-10-31T10:16:29;1.93;;;0.67;;
2728;SDS011;1372;47.956;7.830;2023-10-31T10:19:11;1.07;;;0.70;;
2728;SDS011;1372;47.956;7.830;2023-10-31T10:21:48;2.50;;;0.80;;
2728;SDS011;1372;47.956;7.830;2023-10-31T10:24:19;2.43;;;0.70;;
2728;SDS011;1372;47.956;7.830;2023-10-31T10:26:49;1.83;;;0.90;;
2728;SDS011;1372;47.956;7.830;2023-10-31T10:29:21;0.50;;;0.50;;
2728;SDS011;1372;47.956;7.830;2023-10-31T10:31:53;0.83;;;0.80;;
2728;SDS011;1372;47.956;7.830;2023-10-31T10:34:22;3.93;;;0.87;;
2728;SDS011;1372;47.956;7.830;2023-10-31T10:36:53;1.60;;;0.93;;
2728;SDS011;1372;47.956;7.830;2023-10-31T10:39:26;1.60;;;0.97;;
2728;SDS011;1372;47.956;7.830;2023-10-31T10:41:58;2.30;;;1.17;;
2728;SDS011;1372;47.956;7.830;2023-10-31T10:44:32;3.07;;;0.93;;
2728;SDS011;1372;47.956;7.830;2023-10-31T10:47:02;1.27;;;0.70;;
2728;SDS011;1372;47.956;7.830;2023-10-31T10:49:34;1.83;;;1.00;;
2728;SDS011;1372;47.956;7.830;2023-10-31T10:52:14;1.17;;;0.60;;
2728;SDS011;1372;47.956;7.830;2023-10-31T10:54:52;2.60;;;1.20;;
2728;SDS011;1372;47.956;7.830;2023-10-31T10:57:32;2.97;;;1.30;;
2728;SDS011;1372;47.956;7.830;2023-10-31T11:00:09;1.90;;;0.90;;
2728;SDS011;1372;47.956;7.830;2023-10-31T11:02:40;0.57;;;0.57;;
2728;SDS011;1372;47.956;7.830;2023-10-31T11:05:12;2.47;;;0.90;;
2728;SDS011;1372;47.956;7.830;2023-10-31T11:07:43;2.30;;;1.00;;
2728;SDS011;1372;47.956;7.830;2023-10-31T11:10:14;1.23;;;0.90;;
2728;SDS011;1372;47.956;7.830;2023-10-31T11:12:43;1.93;;;0.90;;
2728;SDS011;1372;47.956;7.830;2023-10-31T11:15:13;2.17;;;0.80;;
2728;SDS011;1372;47.956;7.830;2023-10-31T11:17:44;0.70;;;0.70;;
2728;SDS011;1372;47.956;7.830;2023-10-31T11:20:15;1.33;;;0.73;;
2728;SDS011;1372;47.956;7.830;2023-10-31T11:22:46;0.73;;;0.70;;
2728;SDS011;1372;47.956;7.830;2023-10-31T11:25:18;1.33;;;1.17;;
2728;SDS011;1372;47.956;7.830;2023-10-31T11:27:57;1.90;;;1.00;;
2728;SDS011;1372;47.956;7.830;2023-10-31T11:30:40;2.37;;;0.87;;
2728;SDS011;1372;47.956;7.830;2023-10-31T11:33:14;1.00;;;0.80;;
2728;SDS011;1372;47.956;7.830;2023-10-31T11:35:49;1.33;;;0.83;;
2728;SDS011;1372;47.956;7.830;2023-10-31T11:38:30;1.20;;;0.63;;
2728;SDS011;1372;47.956;7.830;2023-10-31T11:41:01;2.30;;;1.20;;
2728;SDS011;1372;47.956;7.830;2023-10-31T11:43:50;2.77;;;1.40;;
2728;SDS011;1372;47.956;7.830;2023-10-31T11:46:20;1.90;;;1.37;;
2728;SDS011;1372;47.956;7.830;2023-10-31T11:48:54;0.97;;;0.80;;
2728;SDS011;1372;47.956;7.830;2023-10-31T11:51:25;3.80;;;2.60;;
2728;SDS011;1372;47.956;7.830;2023-10-31T11:53:55;5.83;;;4.10;;
2728;SDS011;1372;47.956;7.830;2023-10-31T11:56:27;3.43;;;1.07;;
2728;SDS011;1372;47.956;7.830;2023-10-31T11:58:56;2.27;;;1.00;;
2728;SDS011;1372;47.956;7.830;2023-10-31T12:01:26;0.80;;;0.70;;
2728;SDS011;1372;47.956;7.830;2023-10-31T12:03:55;1.77;;;0.90;;
2728;SDS011;1372;47.956;7.830;2023-10-31T12:06:24;3.73;;;1.30;;
2728;SDS011;1372;47.956;7.830;2023-10-31T12:08:58;0.70;;;0.70;;
2728;SDS011;1372;47.956;7.830;2023-10-31T12:11:29;3.13;;;1.40;;
2728;SDS011;1372;47.956;7.830;2023-10-31T12:13:58;1.40;;;0.70;;
2728;SDS011;1372;47.956;7.830;2023-10-31T12:16:32;0.40;;;0.40;;
2728;SDS011;1372;47.956;7.830;2023-10-31T12:19:03;3.53;;;0.80;;
2728;SDS011;1372;47.956;7.830;2023-10-31T12:21:34;3.17;;;1.90;;
2728;SDS011;1372;47.956;7.830;2023-10-31T12:24:06;0.83;;;0.83;;
2728;SDS011;1372;47.956;7.830;2023-10-31T12:26:38;1.17;;;0.83;;
2728;SDS011;1372;47.956;7.830;2023-10-31T12:29:08;1.00;;;0.90;;
2728;SDS011;1372;47.956;7.830;2023-10-31T12:31:39;1.07;;;0.70;;
2728;SDS011;1372;47.956;7.830;2023-10-31T12:34:12;1.23;;;0.67;;
2728;SDS011;1372;47.956;7.830;2023-10-31T12:36:45;0.90;;;0.77;;
2728;SDS011;1372;47.956;7.830;2023-10-31T12:39:18;1.30;;;1.10;;
2728;SDS011;1372;47.956;7.830;2023-10-31T12:41:51;1.77;;;0.70;;
2728;SDS011;1372;47.956;7.830;2023-10-31T12:44:22;0.80;;;0.50;;
2728;SDS011;1372;47.956;7.830;2023-10-31T12:46:54;1.40;;;0.60;;
2728;SDS011;1372;47.956;7.830;2023-10-31T12:49:24;1.13;;;0.90;;
2728;SDS011;1372;47.956;7.830;2023-10-31T12:51:56;0.83;;;0.50;;
2728;SDS011;1372;47.956;7.830;2023-10-31T12:54:29;0.50;;;0.47;;
2728;SDS011;1372;47.956;7.830;2023-10-31T12:57:02;0.80;;;0.40;;
2728;SDS011;1372;47.956;7.830;2023-10-31T12:59:33;1.10;;;0.53;;
2728;SDS011;1372;47.956;7.830;2023-10-31T13:02:05;0.50;;;0.40;;
2728;SDS011;1372;47.956;7.830;2023-10-31T13:04:35;1.33;;;0.43;;
2728;SDS011;1372;47.956;7.830;2023-10-31T13:07:05;0.90;;;0.67;;
2728;SDS011;1372;47.956;7.830;2023-10-31T13:09:37;0.53;;;0.50;;
2728;SDS011;1372;47.956;7.830;2023-10-31T13:12:09;0.90;;;0.43;;
2728;SDS011;1372;47.956;7.830;2023-10-31T13:14:38;0.50;;;0.43;;
2728;SDS011;1372;47.956;7.830;2023-10-31T13:17:08;0.50;;;0.40;;
2728;SDS011;1372;47.956;7.830;2023-10-31T13:19:39;0.63;;;0.40;;
2728;SDS011;1372;47.956;7.830;2023-10-31T13:22:08;0.40;;;0.40;;
2728;SDS011;1372;47.956;7.830;2023-10-31T13:24:39;0.60;;;0.60;;
2728;SDS011;1372;47.956;7.830;2023-10-31T13:27:09;0.60;;;0.50;;
2728;SDS011;1372;47.956;7.830;2023-10-31T13:29:42;1.67;;;0.90;;
2728;SDS011;1372;47.956;7.830;2023-10-31T13:32:12;0.73;;;0.60;;
2728;SDS011;1372;47.956;7.830;2023-10-31T13:34:42;2.40;;;0.60;;
2728;SDS011;1372;47.956;7.830;2023-10-31T13:37:11;2.50;;;0.60;;
2728;SDS011;1372;47.956;7.830;2023-10-31T13:39:42;1.93;;;0.77;;
2728;SDS011;1372;47.956;7.830;2023-10-31T13:42:11;0.60;;;0.60;;
2728;SDS011;1372;47.956;7.830;2023-10-31T13:44:41;0.67;;;0.60;;
2728;SDS011;1372;47.956;7.830;2023-10-31T13:47:09;1.57;;;0.53;;
2728;SDS011;1372;47.956;7.830;2023-10-31T13:49:39;0.60;;;0.60;;
2728;SDS011;1372;47.956;7.830;2023-10-31T13:52:10;0.70;;;0.67;;
2728;SDS011;1372;47.956;7.830;2023-10-31T13:54:39;0.77;;;0.70;;
2728;SDS011;1372;47.956;7.830;2023-10-31T13:57:10;0.40;;;0.40;;
2728;SDS011;1372;47.956;7.830;2023-10-31T13:59:42;1.07;;;0.50;;
2728;SDS011;1372;47.956;7.830;2023-10-31T14:02:11;0.63;;;0.50;;
2728;SDS011;1372;47.956;7.830;2023-10-31T14:04:41;2.87;;;0.83;;
2728;SDS011;1372;47.956;7.830;2023-10-31T14:07:12;1.60;;;0.70;;
2728;SDS011;1372;47.956;7.830;2023-10-31T14:09:52;0.67;;;0.67;;
2728;SDS011;1372;47.956;7.830;2023-10-31T14:12:23;0.60;;;0.50;;
2728;SDS011;1372;47.956;7.830;2023-10-31T14:14:52;1.00;;;0.90;;
2728;SDS011;1372;47.956;7.830;2023-10-31T14:17:23;1.27;;;0.80;;
2728;SDS011;1372;47.956;7.830;2023-10-31T14:19:55;3.40;;;0.60;;
2728;SDS011;1372;47.956;7.830;2023-10-31T14:22:24;4.03;;;0.83;;
2728;SDS011;1372;47.956;7.830;2023-10-31T14:24:55;1.10;;;1.00;;
2728;SDS011;1372;47.956;7.830;2023-10-31T14:27:24;1.20;;;0.97;;
2728;SDS011;1372;47.956;7.830;2023-10-31T14:29:53;1.10;;;1.00;;
2728;SDS011;1372;47.956;7.830;2023-10-31T14:32:22;1.53;;;0.93;;
2728;SDS011;1372;47.956;7.830;2023-10-31T14:34:51;1.03;;;0.87;;
2728;SDS011;1372;47.956;7.830;2023-10-31T14:37:20;1.30;;;0.97;;
2728;SDS011;1372;47.956;7.830;2023-10-31T14:39:49;0.70;;;0.70;;
2728;SDS011;1372;47.956;7.830;2023-10-31T14:42:19;1.10;;;0.80;;
2728;SDS011;1372;47.956;7.830;2023-10-31T14:44:48;0.50;;;0.50;;
2728;SDS011;1372;47.956;7.830;2023-10-31T14:47:17;0.80;;;0.60;;
2728;SDS011;1372;47.956;7.830;2023-10-31T14:49:47;0.80;;;0.70;;
2728;SDS011;1372;47.956;7.830;2023-10-31T14:52:15;0.60;;;0.60;;
2728;SDS011;1372;47.956;7.830;2023-10-31T14:54:44;1.50;;;1.00;;
2728;SDS011;1372;47.956;7.830;2023-10-31T14:57:14;0.97;;;0.60;;
2728;SDS011;1372;47.956;7.830;2023-10-31T14:59:46;0.70;;;0.50;;
2728;SDS011;1372;47.956;7.830;2023-10-31T15:02:18;1.33;;;0.90;;
2728;SDS011;1372;47.956;7.830;2023-10-31T15:04:46;1.70;;;0.97;;
2728;SDS011;1372;47.956;7.830;2023-10-31T15:07:16;1.60;;;1.07;;
2728;SDS011;1372;47.956;7.830;2023-10-31T15:09:45;0.73;;;0.60;;
2728;SDS011;1372;47.956;7.830;2023-10-31T15:12:15;1.07;;;0.70;;
2728;SDS011;1372;47.956;7.830;2023-10-31T15:14:45;1.90;;;0.70;;
2728;SDS011;1372;47.956;7.830;2023-10-31T15:17:14;1.30;;;0.60;;
2728;SDS011;1372;47.956;7.830;2023-10-31T15:19:43;1.60;;;0.60;;
2728;SDS011;1372;47.956;7.830;2023-10-31T15:22:12;1.30;;;1.17;;
2728;SDS011;1372;47.956;7.830;2023-10-31T15:24:41;1.00;;;0.90;;
2728;SDS011;1372;47.956;7.830;2023-10-31T15:27:10;0.90;;;0.90;;
2728;SDS011;1372;47.956;7.830;2023-10-31T15:29:41;1.50;;;0.90;;
2728;SDS011;1372;47.956;7.830;2023-10-31T15:32:11;1.43;;;1.33;;
2728;SDS011;1372;47.956;7.830;2023-10-31T15:34:40;0.90;;;0.90;;